sensor_id;sensor_type;location;lat;lon;timestamp;temperature;humidity
57652;DHT22;43480;53.116;6.734;2022-10-15T00:01:23;12.20;99.90
57652;DHT22;43480;53.116;6.734;2022-10-15T00:03:49;12.10;99.90
57652;DHT22;43480;53.116;6.734;2022-10-15T00:06:16;12.20;99.90
57652;DHT22;43480;53.116;6.734;2022-10-15T00:08:42;12.20;99.90
57652;DHT22;43480;53.116;6.734;2022-10-15T00:11:12;12.20;99.90
57652;DHT22;43480;53.116;6.734;2022-10-15T00:13:38;12.20;99.90
57652;DHT22;43480;53.116;6.734;2022-10-15T00:16:03;12.20;99.90
57652;DHT22;43480;53.116;6.734;2022-10-15T00:18:29;12.20;99.90
57652;DHT22;43480;53.116;6.734;2022-10-15T00:20:54;12.20;99.90
57652;DHT22;43480;53.116;6.734;2022-10-15T00:23:20;12.20;99.90
57652;DHT22;43480;53.116;6.734;2022-10-15T00:25:46;12.20;99.90
57652;DHT22;43480;53.116;6.734;2022-10-15T00:28:11;12.20;99.90
57652;DHT22;43480;53.116;6.734;2022-10-15T00:30:37;12.20;99.90
57652;DHT22;43480;53.116;6.734;2022-10-15T00:33:02;12.20;99.90
57652;DHT22;43480;53.116;6.734;2022-10-15T00:35:28;12.20;99.90
57652;DHT22;43480;53.116;6.734;2022-10-15T00:37:54;12.20;99.90
57652;DHT22;43480;53.116;6.734;2022-10-15T00:40:19;12.20;99.90
57652;DHT22;43480;53.116;6.734;2022-10-15T00:42:45;12.20;99.90
57652;DHT22;43480;53.116;6.734;2022-10-15T00:45:11;12.20;99.90
57652;DHT22;43480;53.116;6.734;2022-10-15T00:47:38;12.20;99.90
57652;DHT22;43480;53.116;6.734;2022-10-15T00:50:06;12.20;99.90
57652;DHT22;43480;53.116;6.734;2022-10-15T00:52:43;12.20;99.90
57652;DHT22;43480;53.116;6.734;2022-10-15T00:55:11;12.20;99.90
57652;DHT22;43480;53.116;6.734;2022-10-15T00:57:38;12.20;99.90
57652;DHT22;43480;53.116;6.734;2022-10-15T01:00:07;12.20;99.90
57652;DHT22;43480;53.116;6.734;2022-10-15T01:02:33;12.20;99.90
57652;DHT22;43480;53.116;6.734;2022-10-15T01:04:58;12.20;99.90
57652;DHT22;43480;53.116;6.734;2022-10-15T01:07:24;12.20;99.90
57652;DHT22;43480;53.116;6.734;2022-10-15T01:09:50;12.20;99.90
57652;DHT22;43480;53.116;6.734;2022-10-15T01:12:18;12.20;99.90
57652;DHT22;43480;53.116;6.734;2022-10-15T01:14:54;12.20;99.90
57652;DHT22;43480;53.116;6.734;2022-10-15T01:22:22;12.20;99.90
57652;DHT22;43480;53.116;6.734;2022-10-15T01:25:14;12.20;99.90
57652;DHT22;43480;53.116;6.734;2022-10-15T01:27:55;12.20;99.90
57652;DHT22;43480;53.116;6.734;2022-10-15T01:30:33;12.20;99.90
57652;DHT22;43480;53.116;6.734;2022-10-15T01:33:05;12.20;99.90
57652;DHT22;43480;53.116;6.734;2022-10-15T01:35:43;12.20;99.90
57652;DHT22;43480;53.116;6.734;2022-10-15T01:38:23;12.20;99.90
57652;DHT22;43480;53.116;6.734;2022-10-15T01:43:36;12.20;99.90
57652;DHT22;43480;53.116;6.734;2022-10-15T01:46:07;12.20;99.90
57652;DHT22;43480;53.116;6.734;2022-10-15T01:48:35;12.20;99.90
57652;DHT22;43480;53.116;6.734;2022-10-15T01:51:02;12.20;99.90
57652;DHT22;43480;53.116;6.734;2022-10-15T01:53:29;12.20;99.90
57652;DHT22;43480;53.116;6.734;2022-10-15T01:56:00;12.20;99.90
57652;DHT22;43480;53.116;6.734;2022-10-15T01:58:27;12.20;99.90
57652;DHT22;43480;53.116;6.734;2022-10-15T02:00:54;12.20;99.90
57652;DHT22;43480;53.116;6.734;2022-10-15T02:03:21;12.20;99.90
57652;DHT22;43480;53.116;6.734;2022-10-15T02:05:48;12.20;99.90
57652;DHT22;43480;53.116;6.734;2022-10-15T02:11:01;12.20;99.90
57652;DHT22;43480;53.116;6.734;2022-10-15T02:13:40;12.10;99.90
57652;DHT22;43480;53.116;6.734;2022-10-15T02:18:44;12.10;99.90
57652;DHT22;43480;53.116;6.734;2022-10-15T02:21:13;12.10;99.90
57652;DHT22;43480;53.116;6.734;2022-10-15T02:23:55;12.20;99.90
57652;DHT22;43480;53.116;6.734;2022-10-15T02:26:23;12.10;99.90
57652;DHT22;43480;53.116;6.734;2022-10-15T02:28:51;12.20;99.90
57652;DHT22;43480;53.116;6.734;2022-10-15T02:31:19;12.20;99.90
57652;DHT22;43480;53.116;6.734;2022-10-15T02:33:46;12.10;99.90
57652;DHT22;43480;53.116;6.734;2022-10-15T02:36:12;12.20;99.90
57652;DHT22;43480;53.116;6.734;2022-10-15T02:38:39;12.20;99.90
57652;DHT22;43480;53.116;6.734;2022-10-15T02:41:06;12.20;99.90
57652;DHT22;43480;53.116;6.734;2022-10-15T02:43:34;12.10;99.90
57652;DHT22;43480;53.116;6.734;2022-10-15T02:45:59;12.10;99.90
57652;DHT22;43480;53.116;6.734;2022-10-15T02:48:25;12.20;99.90
57652;DHT22;43480;53.116;6.734;2022-10-15T02:50:50;12.20;99.90
57652;DHT22;43480;53.116;6.734;2022-10-15T02:53:16;12.10;99.90
57652;DHT22;43480;53.116;6.734;2022-10-15T02:55:41;12.10;99.90
57652;DHT22;43480;53.116;6.734;2022-10-15T02:58:07;12.10;99.90
57652;DHT22;43480;53.116;6.734;2022-10-15T03:00:32;12.20;99.90
57652;DHT22;43480;53.116;6.734;2022-10-15T03:02:58;12.20;99.90
57652;DHT22;43480;53.116;6.734;2022-10-15T03:05:23;12.20;99.90
57652;DHT22;43480;53.116;6.734;2022-10-15T03:07:49;12.20;99.90
57652;DHT22;43480;53.116;6.734;2022-10-15T03:10:14;12.10;99.90
57652;DHT22;43480;53.116;6.734;2022-10-15T03:12:40;12.20;99.90
57652;DHT22;43480;53.116;6.734;2022-10-15T03:15:06;12.10;99.90
57652;DHT22;43480;53.116;6.734;2022-10-15T03:17:31;12.20;99.90
57652;DHT22;43480;53.116;6.734;2022-10-15T03:19:57;12.20;99.90
57652;DHT22;43480;53.116;6.734;2022-10-15T03:22:22;12.20;99.90
57652;DHT22;43480;53.116;6.734;2022-10-15T03:24:48;12.20;99.90
57652;DHT22;43480;53.116;6.734;2022-10-15T03:27:13;12.20;99.90
57652;DHT22;43480;53.116;6.734;2022-10-15T03:29:39;12.10;99.90
57652;DHT22;43480;53.116;6.734;2022-10-15T03:32:04;12.10;99.90
57652;DHT22;43480;53.116;6.734;2022-10-15T03:34:30;12.10;99.90
57652;DHT22;43480;53.116;6.734;2022-10-15T03:36:56;12.10;99.90
57652;DHT22;43480;53.116;6.734;2022-10-15T03:39:21;12.10;99.90
57652;DHT22;43480;53.116;6.734;2022-10-15T03:41:47;12.00;99.90
57652;DHT22;43480;53.116;6.734;2022-10-15T03:44:12;12.00;99.90
57652;DHT22;43480;53.116;6.734;2022-10-15T03:46:38;12.10;99.90
57652;DHT22;43480;53.116;6.734;2022-10-15T03:49:03;12.10;99.90
57652;DHT22;43480;53.116;6.734;2022-10-15T03:51:29;12.00;99.90
57652;DHT22;43480;53.116;6.734;2022-10-15T03:53:55;12.00;99.90
57652;DHT22;43480;53.116;6.734;2022-10-15T03:56:20;12.10;99.90
57652;DHT22;43480;53.116;6.734;2022-10-15T03:58:46;12.00;99.90
57652;DHT22;43480;53.116;6.734;2022-10-15T04:01:12;12.10;99.90
57652;DHT22;43480;53.116;6.734;2022-10-15T04:03:38;12.10;99.90
57652;DHT22;43480;53.116;6.734;2022-10-15T04:06:04;12.10;99.90
57652;DHT22;43480;53.116;6.734;2022-10-15T04:08:29;12.10;99.90
57652;DHT22;43480;53.116;6.734;2022-10-15T04:10:55;12.10;99.90
57652;DHT22;43480;53.116;6.734;2022-10-15T04:13:20;12.10;99.90
57652;DHT22;43480;53.116;6.734;2022-10-15T04:15:46;12.10;99.90
57652;DHT22;43480;53.116;6.734;2022-10-15T04:18:11;12.10;99.90
57652;DHT22;43480;53.116;6.734;2022-10-15T04:20:37;12.10;99.90
57652;DHT22;43480;53.116;6.734;2022-10-15T04:23:03;12.10;99.90
57652;DHT22;43480;53.116;6.734;2022-10-15T04:25:28;12.10;99.90
57652;DHT22;43480;53.116;6.734;2022-10-15T04:27:54;12.00;99.90
57652;DHT22;43480;53.116;6.734;2022-10-15T04:30:20;12.10;99.90
57652;DHT22;43480;53.116;6.734;2022-10-15T04:32:45;12.10;99.90
57652;DHT22;43480;53.116;6.734;2022-10-15T04:35:11;12.10;99.90
57652;DHT22;43480;53.116;6.734;2022-10-15T04:37:37;12.00;99.90
57652;DHT22;43480;53.116;6.734;2022-10-15T04:40:02;12.00;99.90
57652;DHT22;43480;53.116;6.734;2022-10-15T04:42:29;12.00;99.90
57652;DHT22;43480;53.116;6.734;2022-10-15T04:44:54;12.00;99.90
57652;DHT22;43480;53.116;6.734;2022-10-15T04:47:20;12.00;99.90
57652;DHT22;43480;53.116;6.734;2022-10-15T04:49:45;12.00;99.90
57652;DHT22;43480;53.116;6.734;2022-10-15T04:52:11;12.00;99.90
57652;DHT22;43480;53.116;6.734;2022-10-15T04:54:36;12.00;99.90
57652;DHT22;43480;53.116;6.734;2022-10-15T04:57:05;11.90;99.90
57652;DHT22;43480;53.116;6.734;2022-10-15T04:59:31;11.90;99.90
57652;DHT22;43480;53.116;6.734;2022-10-15T05:01:56;11.90;99.90
57652;DHT22;43480;53.116;6.734;2022-10-15T05:04:22;11.90;99.90
57652;DHT22;43480;53.116;6.734;2022-10-15T05:06:47;11.90;99.90
57652;DHT22;43480;53.116;6.734;2022-10-15T05:09:13;11.90;99.90
57652;DHT22;43480;53.116;6.734;2022-10-15T05:11:38;11.90;99.90
57652;DHT22;43480;53.116;6.734;2022-10-15T05:14:04;11.90;99.90
57652;DHT22;43480;53.116;6.734;2022-10-15T05:16:30;11.90;99.90
57652;DHT22;43480;53.116;6.734;2022-10-15T05:18:57;11.90;99.90
57652;DHT22;43480;53.116;6.734;2022-10-15T05:21:23;11.90;99.90
57652;DHT22;43480;53.116;6.734;2022-10-15T05:23:49;11.80;99.90
57652;DHT22;43480;53.116;6.734;2022-10-15T05:26:16;11.90;99.90
57652;DHT22;43480;53.116;6.734;2022-10-15T05:28:42;11.80;99.90
57652;DHT22;43480;53.116;6.734;2022-10-15T05:31:12;11.80;99.90
57652;DHT22;43480;53.116;6.734;2022-10-15T05:33:38;11.80;99.90
57652;DHT22;43480;53.116;6.734;2022-10-15T05:38:41;11.80;99.90
57652;DHT22;43480;53.116;6.734;2022-10-15T05:41:07;11.80;99.90
57652;DHT22;43480;53.116;6.734;2022-10-15T05:43:32;11.80;99.90
57652;DHT22;43480;53.116;6.734;2022-10-15T05:45:58;11.70;99.90
57652;DHT22;43480;53.116;6.734;2022-10-15T05:48:24;11.70;99.90
57652;DHT22;43480;53.116;6.734;2022-10-15T05:50:49;11.70;99.90
57652;DHT22;43480;53.116;6.734;2022-10-15T05:53:15;11.70;99.90
57652;DHT22;43480;53.116;6.734;2022-10-15T05:55:40;11.70;99.90
57652;DHT22;43480;53.116;6.734;2022-10-15T05:58:06;11.60;99.90
57652;DHT22;43480;53.116;6.734;2022-10-15T06:00:31;11.70;99.90
57652;DHT22;43480;53.116;6.734;2022-10-15T06:02:57;11.60;99.90
57652;DHT22;43480;53.116;6.734;2022-10-15T06:05:23;11.70;99.90
57652;DHT22;43480;53.116;6.734;2022-10-15T06:07:48;11.60;99.90
57652;DHT22;43480;53.116;6.734;2022-10-15T06:10:14;11.70;99.90
57652;DHT22;43480;53.116;6.734;2022-10-15T06:12:39;11.70;99.90
57652;DHT22;43480;53.116;6.734;2022-10-15T06:15:05;11.70;99.90
57652;DHT22;43480;53.116;6.734;2022-10-15T06:17:31;11.70;99.90
57652;DHT22;43480;53.116;6.734;2022-10-15T06:19:56;11.70;99.90
57652;DHT22;43480;53.116;6.734;2022-10-15T06:22:22;11.70;99.90
57652;DHT22;43480;53.116;6.734;2022-10-15T06:24:47;11.70;99.90
57652;DHT22;43480;53.116;6.734;2022-10-15T06:27:13;11.70;99.90
57652;DHT22;43480;53.116;6.734;2022-10-15T06:29:38;11.80;99.90
57652;DHT22;43480;53.116;6.734;2022-10-15T06:32:07;11.80;99.90
57652;DHT22;43480;53.116;6.734;2022-10-15T06:34:33;11.80;99.90
57652;DHT22;43480;53.116;6.734;2022-10-15T06:36:58;11.80;99.90
57652;DHT22;43480;53.116;6.734;2022-10-15T06:39:24;11.80;99.90
57652;DHT22;43480;53.116;6.734;2022-10-15T06:41:49;11.90;99.90
57652;DHT22;43480;53.116;6.734;2022-10-15T06:44:15;11.90;99.90
57652;DHT22;43480;53.116;6.734;2022-10-15T06:46:40;11.90;99.90
57652;DHT22;43480;53.116;6.734;2022-10-15T06:49:06;11.90;99.90
57652;DHT22;43480;53.116;6.734;2022-10-15T06:51:31;11.90;99.90
57652;DHT22;43480;53.116;6.734;2022-10-15T06:53:57;12.00;99.90
57652;DHT22;43480;53.116;6.734;2022-10-15T06:56:23;12.00;99.90
57652;DHT22;43480;53.116;6.734;2022-10-15T06:58:48;12.00;99.90
57652;DHT22;43480;53.116;6.734;2022-10-15T07:01:14;12.00;99.90
57652;DHT22;43480;53.116;6.734;2022-10-15T07:03:39;12.10;99.90
57652;DHT22;43480;53.116;6.734;2022-10-15T07:06:06;12.10;99.90
57652;DHT22;43480;53.116;6.734;2022-10-15T07:08:32;12.20;99.90
57652;DHT22;43480;53.116;6.734;2022-10-15T07:10:59;12.20;99.90
57652;DHT22;43480;53.116;6.734;2022-10-15T07:13:25;12.20;99.90
57652;DHT22;43480;53.116;6.734;2022-10-15T07:15:50;12.20;99.90
57652;DHT22;43480;53.116;6.734;2022-10-15T07:18:18;12.30;99.90
57652;DHT22;43480;53.116;6.734;2022-10-15T07:20:44;12.30;99.90
57652;DHT22;43480;53.116;6.734;2022-10-15T07:23:10;12.40;99.90
57652;DHT22;43480;53.116;6.734;2022-10-15T07:25:35;12.40;99.90
57652;DHT22;43480;53.116;6.734;2022-10-15T07:28:01;12.40;99.90
57652;DHT22;43480;53.116;6.734;2022-10-15T07:30:26;12.50;99.90
57652;DHT22;43480;53.116;6.734;2022-10-15T07:32:54;12.50;99.90
57652;DHT22;43480;53.116;6.734;2022-10-15T07:35:19;12.50;99.90
57652;DHT22;43480;53.116;6.734;2022-10-15T07:37:45;12.60;99.90
57652;DHT22;43480;53.116;6.734;2022-10-15T07:40:12;12.70;99.90
57652;DHT22;43480;53.116;6.734;2022-10-15T07:42:37;12.70;99.90
57652;DHT22;43480;53.116;6.734;2022-10-15T07:45:05;12.80;99.90
57652;DHT22;43480;53.116;6.734;2022-10-15T07:47:30;12.90;99.90
57652;DHT22;43480;53.116;6.734;2022-10-15T07:49:56;12.90;99.90
57652;DHT22;43480;53.116;6.734;2022-10-15T07:52:21;13.00;99.90
57652;DHT22;43480;53.116;6.734;2022-10-15T07:54:47;13.00;99.90
57652;DHT22;43480;53.116;6.734;2022-10-15T07:57:12;13.00;99.90
57652;DHT22;43480;53.116;6.734;2022-10-15T07:59:38;13.00;99.90
57652;DHT22;43480;53.116;6.734;2022-10-15T08:02:03;13.00;99.90
57652;DHT22;43480;53.116;6.734;2022-10-15T08:04:29;13.00;99.90
57652;DHT22;43480;53.116;6.734;2022-10-15T08:06:54;13.00;99.90
57652;DHT22;43480;53.116;6.734;2022-10-15T08:09:20;13.00;99.90
57652;DHT22;43480;53.116;6.734;2022-10-15T08:11:46;13.10;99.90
57652;DHT22;43480;53.116;6.734;2022-10-15T08:14:11;13.20;99.90
57652;DHT22;43480;53.116;6.734;2022-10-15T08:16:37;13.20;99.90
57652;DHT22;43480;53.116;6.734;2022-10-15T08:19:02;13.30;99.90
57652;DHT22;43480;53.116;6.734;2022-10-15T08:21:28;13.30;99.90
57652;DHT22;43480;53.116;6.734;2022-10-15T08:23:53;13.30;99.90
57652;DHT22;43480;53.116;6.734;2022-10-15T08:26:19;13.30;99.90
57652;DHT22;43480;53.116;6.734;2022-10-15T08:28:44;13.40;99.90
57652;DHT22;43480;53.116;6.734;2022-10-15T08:31:10;13.50;99.90
57652;DHT22;43480;53.116;6.734;2022-10-15T08:33:36;13.50;99.90
57652;DHT22;43480;53.116;6.734;2022-10-15T08:36:05;13.60;99.90
57652;DHT22;43480;53.116;6.734;2022-10-15T08:38:31;13.70;99.90
57652;DHT22;43480;53.116;6.734;2022-10-15T08:40:57;13.80;99.90
57652;DHT22;43480;53.116;6.734;2022-10-15T08:43:26;13.80;99.90
57652;DHT22;43480;53.116;6.734;2022-10-15T08:45:54;13.90;99.90
57652;DHT22;43480;53.116;6.734;2022-10-15T08:48:23;14.00;99.90
57652;DHT22;43480;53.116;6.734;2022-10-15T08:50:58;14.00;99.90
57652;DHT22;43480;53.116;6.734;2022-10-15T08:53:26;14.00;99.90
57652;DHT22;43480;53.116;6.734;2022-10-15T08:55:53;14.00;99.90
57652;DHT22;43480;53.116;6.734;2022-10-15T09:00:58;13.90;99.90
57652;DHT22;43480;53.116;6.734;2022-10-15T09:03:34;13.80;99.90
57652;DHT22;43480;53.116;6.734;2022-10-15T09:08:39;13.80;99.90
57652;DHT22;43480;53.116;6.734;2022-10-15T09:13:48;14.00;99.90
57652;DHT22;43480;53.116;6.734;2022-10-15T09:16:24;14.10;99.90
57652;DHT22;43480;53.116;6.734;2022-10-15T09:18:51;14.30;99.90
57652;DHT22;43480;53.116;6.734;2022-10-15T09:21:17;14.50;99.90
57652;DHT22;43480;53.116;6.734;2022-10-15T09:23:43;14.50;99.90
57652;DHT22;43480;53.116;6.734;2022-10-15T09:31:27;14.60;99.90
57652;DHT22;43480;53.116;6.734;2022-10-15T09:34:10;14.70;99.90
57652;DHT22;43480;53.116;6.734;2022-10-15T09:36:40;14.70;99.90
57652;DHT22;43480;53.116;6.734;2022-10-15T09:44:33;14.70;99.90
57652;DHT22;43480;53.116;6.734;2022-10-15T09:47:00;14.60;99.90
57652;DHT22;43480;53.116;6.734;2022-10-15T09:49:26;14.50;99.90
57652;DHT22;43480;53.116;6.734;2022-10-15T09:54:28;14.30;99.90
57652;DHT22;43480;53.116;6.734;2022-10-15T09:56:55;14.20;99.90
57652;DHT22;43480;53.116;6.734;2022-10-15T09:59:22;14.20;99.90
57652;DHT22;43480;53.116;6.734;2022-10-15T10:01:55;14.00;99.90
57652;DHT22;43480;53.116;6.734;2022-10-15T10:04:23;14.00;99.90
57652;DHT22;43480;53.116;6.734;2022-10-15T10:06:50;14.00;99.90
57652;DHT22;43480;53.116;6.734;2022-10-15T10:09:18;13.90;99.90
57652;DHT22;43480;53.116;6.734;2022-10-15T10:11:48;13.90;99.90
57652;DHT22;43480;53.116;6.734;2022-10-15T10:14:25;13.90;99.90
57652;DHT22;43480;53.116;6.734;2022-10-15T10:19:29;13.90;99.90
57652;DHT22;43480;53.116;6.734;2022-10-15T10:22:05;13.80;99.90
57652;DHT22;43480;53.116;6.734;2022-10-15T10:24:30;13.80;99.90
57652;DHT22;43480;53.116;6.734;2022-10-15T10:26:58;13.80;99.90
57652;DHT22;43480;53.116;6.734;2022-10-15T10:29:25;13.70;99.90
57652;DHT22;43480;53.116;6.734;2022-10-15T10:31:51;13.70;99.90
57652;DHT22;43480;53.116;6.734;2022-10-15T10:34:27;13.70;99.90
57652;DHT22;43480;53.116;6.734;2022-10-15T10:36:53;13.70;99.90
57652;DHT22;43480;53.116;6.734;2022-10-15T10:39:23;13.70;99.90
57652;DHT22;43480;53.116;6.734;2022-10-15T10:44:39;13.80;99.90
57652;DHT22;43480;53.116;6.734;2022-10-15T10:49:32;13.80;99.90
57652;DHT22;43480;53.116;6.734;2022-10-15T10:51:57;13.90;99.90
57652;DHT22;43480;53.116;6.734;2022-10-15T10:54:23;14.00;99.90
57652;DHT22;43480;53.116;6.734;2022-10-15T10:56:49;14.10;99.90
57652;DHT22;43480;53.116;6.734;2022-10-15T10:59:18;14.20;99.90
57652;DHT22;43480;53.116;6.734;2022-10-15T11:01:45;14.30;99.90
57652;DHT22;43480;53.116;6.734;2022-10-15T11:04:11;14.40;99.90
57652;DHT22;43480;53.116;6.734;2022-10-15T11:06:43;14.40;99.90
57652;DHT22;43480;53.116;6.734;2022-10-15T11:14:47;14.50;99.90
57652;DHT22;43480;53.116;6.734;2022-10-15T11:17:21;14.60;99.90
57652;DHT22;43480;53.116;6.734;2022-10-15T11:22:24;15.00;99.90
57652;DHT22;43480;53.116;6.734;2022-10-15T11:27:36;15.20;99.90
57652;DHT22;43480;53.116;6.734;2022-10-15T11:40:55;15.40;99.90
57652;DHT22;43480;53.116;6.734;2022-10-15T11:46:06;15.40;99.90
57652;DHT22;43480;53.116;6.734;2022-10-15T11:51:07;15.30;99.90
57652;DHT22;43480;53.116;6.734;2022-10-15T11:56:26;15.30;99.90
57652;DHT22;43480;53.116;6.734;2022-10-15T11:58:57;15.40;99.90
57652;DHT22;43480;53.116;6.734;2022-10-15T12:01:44;15.40;99.90
57652;DHT22;43480;53.116;6.734;2022-10-15T12:06:55;15.40;99.90
57652;DHT22;43480;53.116;6.734;2022-10-15T12:09:35;15.50;99.90
57652;DHT22;43480;53.116;6.734;2022-10-15T12:22:09;15.50;99.90
57652;DHT22;43480;53.116;6.734;2022-10-15T12:29:39;15.50;99.90
57652;DHT22;43480;53.116;6.734;2022-10-15T12:32:12;15.60;99.90
57652;DHT22;43480;53.116;6.734;2022-10-15T12:34:44;15.60;99.90
57652;DHT22;43480;53.116;6.734;2022-10-15T12:37:16;15.60;99.90
57652;DHT22;43480;53.116;6.734;2022-10-15T12:39:42;15.60;99.90
57652;DHT22;43480;53.116;6.734;2022-10-15T12:42:22;15.60;99.90
57652;DHT22;43480;53.116;6.734;2022-10-15T12:44:49;15.60;99.90
57652;DHT22;43480;53.116;6.734;2022-10-15T12:47:23;15.60;99.90
57652;DHT22;43480;53.116;6.734;2022-10-15T12:50:04;15.60;99.90
57652;DHT22;43480;53.116;6.734;2022-10-15T12:52:50;15.60;99.90
57652;DHT22;43480;53.116;6.734;2022-10-15T13:02:51;15.70;99.90
57652;DHT22;43480;53.116;6.734;2022-10-15T13:07:53;15.60;99.90
57652;DHT22;43480;53.116;6.734;2022-10-15T13:10:28;15.60;99.90
57652;DHT22;43480;53.116;6.734;2022-10-15T13:12:54;15.60;99.90
57652;DHT22;43480;53.116;6.734;2022-10-15T13:15:21;15.60;99.90
57652;DHT22;43480;53.116;6.734;2022-10-15T13:17:47;15.50;99.90
57652;DHT22;43480;53.116;6.734;2022-10-15T13:23:13;15.40;99.90
57652;DHT22;43480;53.116;6.734;2022-10-15T13:25:40;15.30;99.90
57652;DHT22;43480;53.116;6.734;2022-10-15T13:30:50;15.20;99.90
57652;DHT22;43480;53.116;6.734;2022-10-15T13:33:16;15.20;99.90
57652;DHT22;43480;53.116;6.734;2022-10-15T13:35:41;15.20;99.90
57652;DHT22;43480;53.116;6.734;2022-10-15T13:38:12;15.20;99.90
57652;DHT22;43480;53.116;6.734;2022-10-15T13:40:40;15.20;99.90
57652;DHT22;43480;53.116;6.734;2022-10-15T13:43:15;15.20;99.90
57652;DHT22;43480;53.116;6.734;2022-10-15T13:45:45;15.10;99.90
57652;DHT22;43480;53.116;6.734;2022-10-15T13:48:11;15.10;99.90
57652;DHT22;43480;53.116;6.734;2022-10-15T13:50:37;15.10;99.90
57652;DHT22;43480;53.116;6.734;2022-10-15T13:55:49;15.10;99.90
57652;DHT22;43480;53.116;6.734;2022-10-15T14:00:52;15.00;99.90
57652;DHT22;43480;53.116;6.734;2022-10-15T14:03:20;15.10;99.90
57652;DHT22;43480;53.116;6.734;2022-10-15T14:05:47;15.10;99.90
57652;DHT22;43480;53.116;6.734;2022-10-15T14:08:35;15.10;99.90
57652;DHT22;43480;53.116;6.734;2022-10-15T14:10:59;15.10;99.90
57652;DHT22;43480;53.116;6.734;2022-10-15T14:13:25;15.10;99.90
57652;DHT22;43480;53.116;6.734;2022-10-15T14:15:52;15.10;99.90
57652;DHT22;43480;53.116;6.734;2022-10-15T14:21:19;15.00;99.90
57652;DHT22;43480;53.116;6.734;2022-10-15T14:23:45;15.00;99.90
57652;DHT22;43480;53.116;6.734;2022-10-15T14:26:11;15.00;99.90
57652;DHT22;43480;53.116;6.734;2022-10-15T14:28:38;15.00;99.90
57652;DHT22;43480;53.116;6.734;2022-10-15T14:31:04;15.00;99.90
57652;DHT22;43480;53.116;6.734;2022-10-15T14:33:32;14.90;99.90
57652;DHT22;43480;53.116;6.734;2022-10-15T14:36:43;15.00;99.90
57652;DHT22;43480;53.116;6.734;2022-10-15T14:38:46;15.00;99.90
57652;DHT22;43480;53.116;6.734;2022-10-15T14:43:40;15.00;99.90
57652;DHT22;43480;53.116;6.734;2022-10-15T14:46:07;14.90;99.90
57652;DHT22;43480;53.116;6.734;2022-10-15T14:48:36;15.00;99.90
57652;DHT22;43480;53.116;6.734;2022-10-15T14:51:03;15.00;99.90
57652;DHT22;43480;53.116;6.734;2022-10-15T14:53:31;15.00;99.90
57652;DHT22;43480;53.116;6.734;2022-10-15T14:56:05;15.10;99.90
57652;DHT22;43480;53.116;6.734;2022-10-15T14:58:32;15.00;99.90
57652;DHT22;43480;53.116;6.734;2022-10-15T15:00:58;15.10;99.90
57652;DHT22;43480;53.116;6.734;2022-10-15T15:03:26;15.10;99.90
57652;DHT22;43480;53.116;6.734;2022-10-15T15:05:53;15.10;99.90
57652;DHT22;43480;53.116;6.734;2022-10-15T15:08:19;15.30;99.90
57652;DHT22;43480;53.116;6.734;2022-10-15T15:10:45;15.40;99.90
57652;DHT22;43480;53.116;6.734;2022-10-15T15:13:17;15.40;99.90
57652;DHT22;43480;53.116;6.734;2022-10-15T15:15:44;15.40;99.90
57652;DHT22;43480;53.116;6.734;2022-10-15T15:18:09;15.40;99.90
57652;DHT22;43480;53.116;6.734;2022-10-15T15:20:35;15.40;99.90
57652;DHT22;43480;53.116;6.734;2022-10-15T15:23:01;15.40;99.90
57652;DHT22;43480;53.116;6.734;2022-10-15T15:25:27;15.40;99.90
57652;DHT22;43480;53.116;6.734;2022-10-15T15:27:54;15.40;99.90
57652;DHT22;43480;53.116;6.734;2022-10-15T15:30:20;15.40;99.90
57652;DHT22;43480;53.116;6.734;2022-10-15T15:32:46;15.40;99.90
57652;DHT22;43480;53.116;6.734;2022-10-15T15:35:23;15.40;99.90
57652;DHT22;43480;53.116;6.734;2022-10-15T15:37:49;15.40;99.90
57652;DHT22;43480;53.116;6.734;2022-10-15T15:40:14;15.40;99.90
57652;DHT22;43480;53.116;6.734;2022-10-15T15:42:40;15.40;99.90
57652;DHT22;43480;53.116;6.734;2022-10-15T15:45:08;15.40;99.90
57652;DHT22;43480;53.116;6.734;2022-10-15T15:47:38;15.40;99.90
57652;DHT22;43480;53.116;6.734;2022-10-15T15:50:04;15.40;99.90
57652;DHT22;43480;53.116;6.734;2022-10-15T15:52:29;15.30;99.90
57652;DHT22;43480;53.116;6.734;2022-10-15T15:54:55;15.20;99.90
57652;DHT22;43480;53.116;6.734;2022-10-15T15:57:20;15.10;99.90
57652;DHT22;43480;53.116;6.734;2022-10-15T15:59:45;15.00;99.90
57652;DHT22;43480;53.116;6.734;2022-10-15T16:02:11;14.90;99.90
57652;DHT22;43480;53.116;6.734;2022-10-15T16:04:37;14.90;99.90
57652;DHT22;43480;53.116;6.734;2022-10-15T16:07:02;14.80;99.90
57652;DHT22;43480;53.116;6.734;2022-10-15T16:09:28;14.80;99.90
57652;DHT22;43480;53.116;6.734;2022-10-15T16:11:53;14.70;99.90
57652;DHT22;43480;53.116;6.734;2022-10-15T16:14:21;14.60;99.90
57652;DHT22;43480;53.116;6.734;2022-10-15T16:16:46;14.70;99.90
57652;DHT22;43480;53.116;6.734;2022-10-15T16:19:12;14.60;99.90
57652;DHT22;43480;53.116;6.734;2022-10-15T16:21:37;14.60;99.90
57652;DHT22;43480;53.116;6.734;2022-10-15T16:24:03;14.60;99.90
57652;DHT22;43480;53.116;6.734;2022-10-15T16:26:28;14.60;99.90
57652;DHT22;43480;53.116;6.734;2022-10-15T16:28:54;14.60;99.90
57652;DHT22;43480;53.116;6.734;2022-10-15T16:31:21;14.60;99.90
57652;DHT22;43480;53.116;6.734;2022-10-15T16:33:46;14.60;99.90
57652;DHT22;43480;53.116;6.734;2022-10-15T16:36:12;14.60;99.90
57652;DHT22;43480;53.116;6.734;2022-10-15T16:38:39;14.60;99.90
57652;DHT22;43480;53.116;6.734;2022-10-15T16:41:05;14.60;99.90
57652;DHT22;43480;53.116;6.734;2022-10-15T16:43:31;14.60;99.90
57652;DHT22;43480;53.116;6.734;2022-10-15T16:45:57;14.60;99.90
57652;DHT22;43480;53.116;6.734;2022-10-15T16:48:23;14.60;99.90
57652;DHT22;43480;53.116;6.734;2022-10-15T16:53:44;14.60;99.90
57652;DHT22;43480;53.116;6.734;2022-10-15T16:56:17;14.50;99.90
57652;DHT22;43480;53.116;6.734;2022-10-15T16:58:43;14.50;99.90
57652;DHT22;43480;53.116;6.734;2022-10-15T17:01:15;14.40;99.90
57652;DHT22;43480;53.116;6.734;2022-10-15T17:03:41;14.40;99.90
57652;DHT22;43480;53.116;6.734;2022-10-15T17:06:11;14.30;99.90
57652;DHT22;43480;53.116;6.734;2022-10-15T17:08:41;14.30;99.90
57652;DHT22;43480;53.116;6.734;2022-10-15T17:11:08;14.20;99.90
57652;DHT22;43480;53.116;6.734;2022-10-15T17:13:33;14.20;99.90
57652;DHT22;43480;53.116;6.734;2022-10-15T17:18:33;14.10;99.90
57652;DHT22;43480;53.116;6.734;2022-10-15T17:20:59;14.00;99.90
57652;DHT22;43480;53.116;6.734;2022-10-15T17:23:24;14.00;99.90
57652;DHT22;43480;53.116;6.734;2022-10-15T17:25:50;13.90;99.90
57652;DHT22;43480;53.116;6.734;2022-10-15T17:28:16;13.90;99.90
57652;DHT22;43480;53.116;6.734;2022-10-15T17:30:41;13.90;99.90
57652;DHT22;43480;53.116;6.734;2022-10-15T17:33:06;13.90;99.90
57652;DHT22;43480;53.116;6.734;2022-10-15T17:35:35;13.80;99.90